Aviation Digital Data Service (ADDS)

Output produced by METARs form (2307 UTC 21 September 2021)
found at http://aviationweather.gov/metar/data/
 
METAR text: KLZZ 212255Z AUTO 01011G15KT 10SM SCT120 30/11 A3012 RMK AO2 T02990106
Conditions at: KLZZ (LAMPASAS , TX, US) observed 2255 UTC 21 September 2021
Temperature: 29.9°C (86°F)
Dewpoint: 10.6°C (51°F) [RH = 30%]
Pressure (altimeter): 30.12 inches Hg (1020.1 mb)
Winds: from the N (10 degrees) at 13 MPH (11 knots; 5.7 m/s)
gusting to 17 MPH (15 knots; 7.7 m/s)
Visibility: 10 or more miles (16+ km)
Ceiling: at least 12,000 feet AGL
Clouds: scattered clouds at 12000 feet AGL
Weather: automated observation with no human augmentation;
there may or may not be significant weather present at this time

METAR text: KLZZ 212235Z AUTO 04010G15KT 10SM SCT120 30/12 A3011 RMK AO2 T03040117
Conditions at: KLZZ (LAMPASAS , TX, US) observed 2235 UTC 21 September 2021
Temperature: 30.4°C (87°F)
Dewpoint: 11.7°C (53°F) [RH = 32%]
Pressure (altimeter): 30.11 inches Hg (1019.7 mb)
Winds: from the NE (40 degrees) at 12 MPH (10 knots; 5.1 m/s)
gusting to 17 MPH (15 knots; 7.7 m/s)
Visibility: 10 or more miles (16+ km)
Ceiling: at least 12,000 feet AGL
Clouds: scattered clouds at 12000 feet AGL
Weather: automated observation with no human augmentation;
there may or may not be significant weather present at this time

METAR text: KLZZ 212215Z AUTO 01010G18KT 10SM SCT120 30/13 A3011 RMK AO2 T03030127
Conditions at: KLZZ (LAMPASAS , TX, US) observed 2215 UTC 21 September 2021
Temperature: 30.3°C (87°F)
Dewpoint: 12.7°C (55°F) [RH = 34%]
Pressure (altimeter): 30.11 inches Hg (1019.7 mb)
Winds: from the N (10 degrees) at 12 MPH (10 knots; 5.1 m/s)
gusting to 21 MPH (18 knots; 9.3 m/s)
Visibility: 10 or more miles (16+ km)
Ceiling: at least 12,000 feet AGL
Clouds: scattered clouds at 12000 feet AGL
Weather: automated observation with no human augmentation;
there may or may not be significant weather present at this time

METAR text: KLZZ 212155Z AUTO 36009G17KT 320V030 10SM BKN120 30/14 A3011 RMK AO2 T02990138
Conditions at: KLZZ (LAMPASAS , TX, US) observed 2155 UTC 21 September 2021
Temperature: 29.9°C (86°F)
Dewpoint: 13.8°C (57°F) [RH = 37%]
Pressure (altimeter): 30.11 inches Hg (1019.7 mb)
Winds: from the N (360 degrees) at 10 MPH (9 knots; 4.6 m/s)
gusting to 20 MPH (17 knots; 8.7 m/s)
Visibility: 10 or more miles (16+ km)
Ceiling: 12000 feet AGL
Clouds: broken clouds at 12000 feet AGL
Weather: automated observation with no human augmentation;
there may or may not be significant weather present at this time

METAR text: KLZZ 212135Z AUTO 02010G17KT 340V040 10SM SCT120 31/15 A3010 RMK AO2 T03050148
Conditions at: KLZZ (LAMPASAS , TX, US) observed 2135 UTC 21 September 2021
Temperature: 30.5°C (87°F)
Dewpoint: 14.8°C (59°F) [RH = 39%]
Pressure (altimeter): 30.10 inches Hg (1019.4 mb)
Winds: from the NNE (20 degrees) at 12 MPH (10 knots; 5.1 m/s)
gusting to 20 MPH (17 knots; 8.7 m/s)
Visibility: 10 or more miles (16+ km)
Ceiling: at least 12,000 feet AGL
Clouds: scattered clouds at 12000 feet AGL
Weather: automated observation with no human augmentation;
there may or may not be significant weather present at this time

METAR text: KLZZ 212115Z AUTO 01011G16KT 10SM CLR 31/15 A3009 RMK AO2 T03120154
Conditions at: KLZZ (LAMPASAS , TX, US) observed 2115 UTC 21 September 2021
Temperature: 31.2°C (88°F)
Dewpoint: 15.4°C (60°F) [RH = 39%]
Pressure (altimeter): 30.09 inches Hg (1019.0 mb)
Winds: from the N (10 degrees) at 13 MPH (11 knots; 5.7 m/s)
gusting to 18 MPH (16 knots; 8.2 m/s)
Visibility: 10 or more miles (16+ km)
Ceiling: at least 12,000 feet AGL
Clouds: sky clear below 12,000 feet AGL
Weather: automated observation with no human augmentation;
there may or may not be significant weather present at this time